createdAt,value
2022-11-09T00:03:20.477Z,13
2022-11-09T00:09:31.016Z,12.9
2022-11-09T00:15:41.694Z,13
2022-11-09T00:21:52.356Z,13
2022-11-09T00:28:03.020Z,12.9
2022-11-09T00:34:21.883Z,12.9
2022-11-09T00:40:32.530Z,13.3
2022-11-09T00:46:43.233Z,13.1
2022-11-09T00:52:53.851Z,13
2022-11-09T01:00:10.452Z,13.3
2022-11-09T01:06:21.168Z,13.1
2022-11-09T01:12:31.785Z,13.2
2022-11-09T01:18:42.464Z,13.2
2022-11-09T01:24:53.174Z,13
2022-11-09T01:31:11.997Z,13
2022-11-09T01:37:22.670Z,13
2022-11-09T01:43:33.395Z,13
2022-11-09T01:49:43.987Z,12.9
2022-11-09T01:55:54.655Z,12.8
2022-11-09T02:03:11.273Z,12.8
2022-11-09T02:08:24.215Z,12.7
2022-11-09T02:14:34.850Z,12.7
2022-11-09T02:20:45.533Z,12.6
2022-11-09T02:26:56.173Z,12.8
2022-11-09T02:34:20.983Z,12.5
2022-11-09T02:40:31.680Z,12.7
2022-11-09T02:46:42.332Z,12.6
2022-11-09T02:52:52.964Z,12.6
2022-11-09T02:59:03.692Z,12.6
2022-11-09T03:05:06.131Z,12.6
2022-11-09T03:11:16.797Z,12.6
2022-11-09T03:17:27.661Z,12.5
2022-11-09T03:23:38.125Z,12.3
2022-11-09T03:29:48.784Z,12.2
2022-11-09T03:35:59.512Z,12.4
2022-11-09T03:42:10.128Z,12.4
2022-11-09T03:48:20.784Z,12.5
2022-11-09T03:54:31.473Z,12.4
2022-11-09T04:01:48.144Z,12.4
2022-11-09T04:07:58.744Z,12.5
2022-11-09T04:14:09.436Z,12.5
2022-11-09T04:21:34.206Z,12.5
2022-11-09T04:27:44.845Z,12.3
2022-11-09T04:33:55.528Z,12.3
2022-11-09T04:39:08.422Z,12.5
2022-11-09T04:45:19.139Z,12.6
2022-11-09T04:51:29.815Z,12.5
2022-11-09T04:57:40.425Z,12.5
2022-11-09T05:04:57.066Z,12.5
2022-11-09T05:11:07.730Z,12.6
2022-11-09T05:17:18.366Z,12.5
2022-11-09T05:23:29.036Z,12.5
2022-11-09T05:29:39.745Z,12.4
2022-11-09T05:35:50.371Z,12.5
2022-11-09T05:40:55.108Z,12.3
2022-11-09T05:47:05.812Z,12.3
2022-11-09T05:54:38.771Z,12.4
2022-11-09T06:00:49.508Z,12.4
2022-11-09T06:05:54.201Z,12.4
2022-11-09T06:13:19.340Z,12.1
2022-11-09T06:20:43.774Z,12.3
2022-11-09T06:28:08.568Z,12.2
2022-11-09T06:33:13.287Z,12.1
2022-11-09T06:39:23.961Z,12.2
2022-11-09T06:45:34.800Z,12.3
2022-11-09T06:51:45.296Z,12.3
2022-11-09T06:57:55.953Z,12.3
2022-11-09T07:03:58.510Z,12.4
2022-11-09T07:10:25.483Z,12.4
2022-11-09T07:16:36.111Z,12.1
2022-11-09T07:22:46.830Z,12
2022-11-09T07:28:57.489Z,12.2
2022-11-09T07:35:08.152Z,12.2
2022-11-09T07:41:18.828Z,12.3
2022-11-09T07:48:43.602Z,12.3
2022-11-09T07:54:54.285Z,12.3
2022-11-09T08:01:04.946Z,12.4
2022-11-09T08:07:07.497Z,12.5
2022-11-09T08:13:18.417Z,13.1
2022-11-09T08:19:28.759Z,13.1
2022-11-09T08:25:39.403Z,13.3
2022-11-09T08:31:50.102Z,13.6
2022-11-09T08:38:00.756Z,13.6
2022-11-09T08:44:11.385Z,13.5
2022-11-09T08:50:22.103Z,13.5
2022-11-09T08:56:32.812Z,13.2
2022-11-09T09:02:43.412Z,13.6
2022-11-09T09:08:45.938Z,13.3
2022-11-09T09:14:56.564Z,13.7
2022-11-09T09:21:07.195Z,14.1
2022-11-09T09:27:17.886Z,14.3
2022-11-09T09:33:28.584Z,14.6
2022-11-09T09:38:41.458Z,13.6
2022-11-09T09:44:52.143Z,13.4
2022-11-09T09:51:02.816Z,12.6
2022-11-09T09:57:13.463Z,12.7
2022-11-09T10:03:24.220Z,12.6
2022-11-09T10:09:34.885Z,12.4
2022-11-09T10:15:45.465Z,12.5
2022-11-09T10:21:56.122Z,12.7
2022-11-09T10:30:35.081Z,13.7
2022-11-09T10:36:45.734Z,12.5
2022-11-09T10:42:56.405Z,12.3
2022-11-09T10:49:07.097Z,11.5
2022-11-09T10:55:17.707Z,11.6
2022-11-09T11:02:42.553Z,11.4
2022-11-09T11:08:45.022Z,11.4
2022-11-09T11:14:55.654Z,11.1
2022-11-09T11:21:06.356Z,11.3
2022-11-09T11:27:17.027Z,11.4
2022-11-09T11:33:27.695Z,11.4
2022-11-09T11:39:38.373Z,11.3
2022-11-09T11:45:49.092Z,11.1
2022-11-09T11:51:59.669Z,11.3
2022-11-09T11:58:10.328Z,11.2
2022-11-09T12:04:21.038Z,11.3
2022-11-09T12:09:25.723Z,11.3
2022-11-09T12:15:36.372Z,11.4
2022-11-09T12:21:47.097Z,11.5
2022-11-09T12:27:57.732Z,11.5
2022-11-09T12:34:08.416Z,11.5
2022-11-09T12:40:19.104Z,11.8
2022-11-09T12:46:29.738Z,11.5
2022-11-09T12:52:40.383Z,11.8
2022-11-09T12:58:51.067Z,11.8
2022-11-09T13:05:01.722Z,11.9
2022-11-09T13:11:04.197Z,11.4
2022-11-09T13:17:14.904Z,11.5
2022-11-09T13:23:41.522Z,11.6
2022-11-09T13:29:36.206Z,11.8
2022-11-09T13:35:46.888Z,11.4
2022-11-09T13:41:57.537Z,11.4
2022-11-09T13:48:08.211Z,11.4
2022-11-09T13:54:18.922Z,11.7
2022-11-09T14:00:29.536Z,11.7
2022-11-09T14:06:40.225Z,11.5
2022-11-09T14:12:50.915Z,11.3
2022-11-09T14:19:01.528Z,10.8
2022-11-09T14:25:12.293Z,11.1
2022-11-09T14:31:22.892Z,11.3
2022-11-09T14:37:49.896Z,11.2
2022-11-09T14:45:14.705Z,10.9
2022-11-09T14:51:25.554Z,10.7
2022-11-09T14:57:36.048Z,10.8
2022-11-09T15:03:46.710Z,10.7
2022-11-09T15:11:03.539Z,11
2022-11-09T15:17:14.016Z,10.9
2022-11-09T15:23:24.658Z,10.9
2022-11-09T15:29:35.450Z,10.9
2022-11-09T15:35:46.017Z,10.9
2022-11-09T15:41:56.699Z,10.8
2022-11-09T15:48:07.345Z,10.9
2022-11-09T15:54:18.002Z,11
2022-11-09T16:00:28.759Z,11
2022-11-09T16:06:43.727Z,11.1
2022-11-09T16:12:46.181Z,11.1
2022-11-09T16:18:52.468Z,11.3
2022-11-09T16:25:03.194Z,11.2
2022-11-09T16:31:13.837Z,11.3
2022-11-09T16:37:24.488Z,11.3
2022-11-09T16:43:35.149Z,11.2
2022-11-09T16:49:45.784Z,11.2
2022-11-09T16:55:56.462Z,11.3
2022-11-09T17:02:07.189Z,11.4
2022-11-09T17:07:20.043Z,11.3
2022-11-09T17:13:22.567Z,11.4
2022-11-09T17:19:33.215Z,11.5
2022-11-09T17:25:43.853Z,11.5
2022-11-09T17:31:54.538Z,11.6
2022-11-09T17:38:05.234Z,11.6
2022-11-09T17:44:15.863Z,11.7
2022-11-09T17:50:26.516Z,11.5
2022-11-09T17:56:37.196Z,11.6
2022-11-09T18:02:47.861Z,11.6
2022-11-09T18:10:04.443Z,11.6
2022-11-09T18:16:17.679Z,11.7
2022-11-09T18:21:19.842Z,11.8
2022-11-09T18:26:24.552Z,11.8
2022-11-09T18:32:35.254Z,11.8
2022-11-09T18:38:45.934Z,11.8
2022-11-09T18:44:56.570Z,11.7
2022-11-09T18:51:07.274Z,11.8
2022-11-09T18:57:19.829Z,11.8
2022-11-09T19:03:28.563Z,11.7
2022-11-09T19:09:39.264Z,11.7
2022-11-09T19:15:41.703Z,11.8
2022-11-09T19:21:52.381Z,11.7
2022-11-09T19:28:03.077Z,11.4
2022-11-09T19:34:13.732Z,11.4
2022-11-09T19:39:32.584Z,11.2
2022-11-09T19:45:37.298Z,11.3
2022-11-09T19:51:47.973Z,11.2
2022-11-09T19:57:58.643Z,11.3
2022-11-09T20:04:10.515Z,11.2
2022-11-09T20:11:25.920Z,11.3
2022-11-09T20:17:36.570Z,11.3
2022-11-09T20:23:47.259Z,11.2
2022-11-09T20:29:57.907Z,11.1
2022-11-09T20:36:08.560Z,11.1
2022-11-09T20:42:19.475Z,10.9
2022-11-09T20:48:51.546Z,11
2022-11-09T20:54:40.576Z,11
2022-11-09T21:00:51.273Z,11.1
2022-11-09T21:07:01.946Z,11
2022-11-09T21:13:04.391Z,11.1
2022-11-09T21:20:29.186Z,11.2
2022-11-09T21:26:39.838Z,11.2
2022-11-09T21:32:50.511Z,11.2
2022-11-09T21:39:01.186Z,11
2022-11-09T21:45:11.845Z,11.2
2022-11-09T21:51:22.488Z,11.2
2022-11-09T21:57:33.211Z,11.3
2022-11-09T22:03:43.848Z,11.3
2022-11-09T22:08:56.741Z,11.2
2022-11-09T22:14:59.248Z,11.2
2022-11-09T22:21:09.902Z,11.3
2022-11-09T22:27:20.545Z,11.3
2022-11-09T22:32:25.312Z,11.2
2022-11-09T22:38:35.970Z,11.2
2022-11-09T22:44:46.641Z,11.1
2022-11-09T22:50:57.320Z,11.2
2022-11-09T22:57:07.954Z,11.3
2022-11-09T23:03:19.016Z,11.2
2022-11-09T23:09:29.285Z,10.9
2022-11-09T23:15:31.744Z,11.2
2022-11-09T23:21:42.445Z,11.3
2022-11-09T23:29:07.257Z,11.4
2022-11-09T23:35:17.880Z,11.4
2022-11-09T23:41:28.542Z,11.4
2022-11-09T23:47:39.250Z,11.3
2022-11-09T23:53:49.873Z,11.4
